Marthaville, Louisiana
Current Conditions -  °F | °C
As of 6:55 PM on Wednesday 22 Oct 2014 (Local Time) from KIER Reporting Station
Clear Clear  
Wind Chill: 69°   Ceiling: Unl
Heat Index: 69°   Visibility: 10mi
Dew Point: 53°   Wind: 3mph
Humidity: 57%   Direction: 30°NNE
Pressure: 30.09"   Gusts: NA
Location:  31.74°N, 93.4°W
Report Text: KIER 222355Z AUTO 03003KT 10SM CLR 21/12 A3009 RMK AO2 T02050117 10260 20203
Loading
Personal Weather Stations






























Interactive Weather Map
Tropical Storm Tracking
New forecast layout! Learn more

10-Day Weather Forecast

Advertisements
Track Severe Weather on mobile